sensor_id;sensor_type;location;lat;lon;timestamp;pressure;altitude;pressure_sealevel;temperature;humidity
36254;BME280;22291;52.250;21.228;2023-04-15T00:00:57;99530.19;;;10.04;71.76
36254;BME280;22291;52.250;21.228;2023-04-15T00:03:28;99529.30;;;10.06;71.71
36254;BME280;22291;52.250;21.228;2023-04-15T00:05:54;99535.84;;;10.05;71.64
36254;BME280;22291;52.250;21.228;2023-04-15T00:08:21;99532.32;;;10.04;71.75
36254;BME280;22291;52.250;21.228;2023-04-15T00:10:47;99533.67;;;10.04;71.73
36254;BME280;22291;52.250;21.228;2023-04-15T00:13:14;99536.05;;;10.06;71.67
36254;BME280;22291;52.250;21.228;2023-04-15T00:15:41;99529.80;;;10.08;71.75
36254;BME280;22291;52.250;21.228;2023-04-15T00:18:08;99528.20;;;10.07;71.75
36254;BME280;22291;52.250;21.228;2023-04-15T00:20:34;99533.60;;;10.07;71.66
36254;BME280;22291;52.250;21.228;2023-04-15T00:23:02;99530.58;;;10.08;71.82
36254;BME280;22291;52.250;21.228;2023-04-15T00:25:29;99524.14;;;10.07;71.96
36254;BME280;22291;52.250;21.228;2023-04-15T00:27:55;99524.71;;;10.06;71.86
36254;BME280;22291;52.250;21.228;2023-04-15T00:30:21;99519.63;;;10.05;72.08
36254;BME280;22291;52.250;21.228;2023-04-15T00:32:48;99522.65;;;10.03;73.12
36254;BME280;22291;52.250;21.228;2023-04-15T00:35:14;99520.84;;;10.01;72.59
36254;BME280;22291;52.250;21.228;2023-04-15T00:37:42;99518.99;;;9.99;72.72
36254;BME280;22291;52.250;21.228;2023-04-15T00:40:12;99515.36;;;9.95;72.91
36254;BME280;22291;52.250;21.228;2023-04-15T00:42:38;99517.03;;;9.94;73.00
36254;BME280;22291;52.250;21.228;2023-04-15T00:45:06;99521.73;;;9.90;73.15
36254;BME280;22291;52.250;21.228;2023-04-15T00:47:35;99519.13;;;9.88;73.12
36254;BME280;22291;52.250;21.228;2023-04-15T00:50:04;99504.02;;;9.87;73.43
36254;BME280;22291;52.250;21.228;2023-04-15T00:52:31;99519.45;;;9.86;73.32
36254;BME280;22291;52.250;21.228;2023-04-15T00:54:59;99504.66;;;9.84;73.56
36254;BME280;22291;52.250;21.228;2023-04-15T00:57:26;99506.27;;;9.85;73.57
36254;BME280;22291;52.250;21.228;2023-04-15T00:59:55;99509.22;;;9.86;73.57
36254;BME280;22291;52.250;21.228;2023-04-15T01:02:23;99508.97;;;9.85;73.74
36254;BME280;22291;52.250;21.228;2023-04-15T01:04:50;99511.66;;;9.85;73.94
36254;BME280;22291;52.250;21.228;2023-04-15T01:07:17;99510.73;;;9.81;74.18
36254;BME280;22291;52.250;21.228;2023-04-15T01:09:44;99510.73;;;9.81;74.29
36254;BME280;22291;52.250;21.228;2023-04-15T01:12:14;99513.76;;;9.79;74.53
36254;BME280;22291;52.250;21.228;2023-04-15T01:14:42;99509.88;;;9.74;74.51
36254;BME280;22291;52.250;21.228;2023-04-15T01:17:08;99516.63;;;9.74;74.84
36254;BME280;22291;52.250;21.228;2023-04-15T01:19:36;99515.81;;;9.73;74.60
36254;BME280;22291;52.250;21.228;2023-04-15T01:22:04;99509.06;;;9.73;74.63
36254;BME280;22291;52.250;21.228;2023-04-15T01:24:31;99517.88;;;9.77;74.84
36254;BME280;22291;52.250;21.228;2023-04-15T01:26:59;99512.27;;;9.76;75.42
36254;BME280;22291;52.250;21.228;2023-04-15T01:29:25;99506.93;;;9.73;74.87
36254;BME280;22291;52.250;21.228;2023-04-15T01:31:54;99501.78;;;9.74;75.51
36254;BME280;22291;52.250;21.228;2023-04-15T01:34:22;99513.12;;;9.73;75.31
36254;BME280;22291;52.250;21.228;2023-04-15T01:36:48;99508.85;;;9.72;75.30
36254;BME280;22291;52.250;21.228;2023-04-15T01:39:14;99511.55;;;9.72;75.23
36254;BME280;22291;52.250;21.228;2023-04-15T01:41:40;99508.21;;;9.76;75.50
36254;BME280;22291;52.250;21.228;2023-04-15T01:44:07;99510.66;;;9.75;76.02
36254;BME280;22291;52.250;21.228;2023-04-15T01:46:35;99515.14;;;9.70;75.76
36254;BME280;22291;52.250;21.228;2023-04-15T01:49:01;99509.48;;;9.69;76.50
36254;BME280;22291;52.250;21.228;2023-04-15T01:51:28;99506.17;;;9.64;76.61
36254;BME280;22291;52.250;21.228;2023-04-15T01:53:54;99510.30;;;9.61;76.89
36254;BME280;22291;52.250;21.228;2023-04-15T01:56:23;99505.85;;;9.57;77.14
36254;BME280;22291;52.250;21.228;2023-04-15T01:58:50;99502.37;;;9.56;77.37
36254;BME280;22291;52.250;21.228;2023-04-15T02:01:17;99504.82;;;9.55;77.47
36254;BME280;22291;52.250;21.228;2023-04-15T02:03:45;99503.10;;;9.50;77.79
36254;BME280;22291;52.250;21.228;2023-04-15T02:06:12;99508.36;;;9.47;79.02
36254;BME280;22291;52.250;21.228;2023-04-15T02:08:39;99497.63;;;9.44;78.32
36254;BME280;22291;52.250;21.228;2023-04-15T02:11:06;99509.30;;;9.42;79.11
36254;BME280;22291;52.250;21.228;2023-04-15T02:13:32;99502.88;;;9.41;79.03
36254;BME280;22291;52.250;21.228;2023-04-15T02:15:58;99507.55;;;9.38;79.28
36254;BME280;22291;52.250;21.228;2023-04-15T02:18:25;99508.69;;;9.37;79.52
36254;BME280;22291;52.250;21.228;2023-04-15T02:20:51;99501.44;;;9.34;79.43
36254;BME280;22291;52.250;21.228;2023-04-15T02:23:18;99502.89;;;9.32;80.13
36254;BME280;22291;52.250;21.228;2023-04-15T02:25:45;99497.56;;;9.29;80.06
36254;BME280;22291;52.250;21.228;2023-04-15T02:28:12;99501.39;;;9.28;80.18
36254;BME280;22291;52.250;21.228;2023-04-15T02:30:38;99499.01;;;9.27;80.33
36254;BME280;22291;52.250;21.228;2023-04-15T02:33:05;99503.84;;;9.27;80.50
36254;BME280;22291;52.250;21.228;2023-04-15T02:35:32;99504.41;;;9.27;80.47
36254;BME280;22291;52.250;21.228;2023-04-15T02:37:59;99504.16;;;9.26;80.64
36254;BME280;22291;52.250;21.228;2023-04-15T02:40:26;99504.97;;;9.26;80.73
36254;BME280;22291;52.250;21.228;2023-04-15T02:42:52;99499.89;;;9.25;81.23
36254;BME280;22291;52.250;21.228;2023-04-15T02:45:18;99503.13;;;9.24;81.05
36254;BME280;22291;52.250;21.228;2023-04-15T02:47:46;99502.91;;;9.23;81.19
36254;BME280;22291;52.250;21.228;2023-04-15T02:50:13;99501.87;;;9.22;81.76
36254;BME280;22291;52.250;21.228;2023-04-15T02:52:41;99500.05;;;9.20;81.50
36254;BME280;22291;52.250;21.228;2023-04-15T02:55:09;99501.94;;;9.19;82.03
36254;BME280;22291;52.250;21.228;2023-04-15T02:57:36;99502.59;;;9.16;82.67
36254;BME280;22291;52.250;21.228;2023-04-15T03:00:05;99500.75;;;9.14;82.13
36254;BME280;22291;52.250;21.228;2023-04-15T03:02:35;99496.23;;;9.12;82.53
36254;BME280;22291;52.250;21.228;2023-04-15T03:05:04;99506.55;;;9.10;83.32
36254;BME280;22291;52.250;21.228;2023-04-15T03:07:32;99502.36;;;9.06;83.01
36254;BME280;22291;52.250;21.228;2023-04-15T03:09:58;99499.19;;;9.04;82.84
36254;BME280;22291;52.250;21.228;2023-04-15T03:12:24;99497.28;;;9.05;83.27
36254;BME280;22291;52.250;21.228;2023-04-15T03:14:50;99504.58;;;9.04;83.21
36254;BME280;22291;52.250;21.228;2023-04-15T03:17:16;99507.50;;;9.05;83.29
36254;BME280;22291;52.250;21.228;2023-04-15T03:19:43;99500.53;;;9.04;83.61
36254;BME280;22291;52.250;21.228;2023-04-15T03:22:10;99499.19;;;9.04;83.48
36254;BME280;22291;52.250;21.228;2023-04-15T03:24:36;99508.85;;;9.05;83.82
36254;BME280;22291;52.250;21.228;2023-04-15T03:27:02;99501.07;;;9.04;84.20
36254;BME280;22291;52.250;21.228;2023-04-15T03:29:28;99510.30;;;9.03;83.71
36254;BME280;22291;52.250;21.228;2023-04-15T03:31:54;99508.94;;;9.03;83.91
36254;BME280;22291;52.250;21.228;2023-04-15T03:34:21;99509.48;;;9.02;84.02
36254;BME280;22291;52.250;21.228;2023-04-15T03:36:47;99505.68;;;9.03;84.01
36254;BME280;22291;52.250;21.228;2023-04-15T03:39:13;99509.41;;;9.05;84.20
36254;BME280;22291;52.250;21.228;2023-04-15T03:41:40;99504.02;;;9.05;84.14
36254;BME280;22291;52.250;21.228;2023-04-15T03:44:06;99506.72;;;9.05;84.08
36254;BME280;22291;52.250;21.228;2023-04-15T03:46:32;99508.06;;;9.05;83.94
36254;BME280;22291;52.250;21.228;2023-04-15T03:48:58;99511.23;;;9.07;84.01
36254;BME280;22291;52.250;21.228;2023-04-15T03:51:25;99513.87;;;9.09;84.25
36254;BME280;22291;52.250;21.228;2023-04-15T03:53:51;99513.55;;;9.11;84.24
36254;BME280;22291;52.250;21.228;2023-04-15T03:56:17;99509.72;;;9.12;84.03
36254;BME280;22291;52.250;21.228;2023-04-15T03:58:43;99512.11;;;9.13;84.40
36254;BME280;22291;52.250;21.228;2023-04-15T04:01:11;99518.06;;;9.13;84.59
36254;BME280;22291;52.250;21.228;2023-04-15T04:03:37;99521.08;;;9.11;84.38
36254;BME280;22291;52.250;21.228;2023-04-15T04:06:03;99517.81;;;9.12;84.35
36254;BME280;22291;52.250;21.228;2023-04-15T04:08:30;99522.43;;;9.11;84.34
36254;BME280;22291;52.250;21.228;2023-04-15T04:10:56;99521.08;;;9.11;84.52
36254;BME280;22291;52.250;21.228;2023-04-15T04:13:23;99526.95;;;9.13;84.77
36254;BME280;22291;52.250;21.228;2023-04-15T04:15:49;99517.59;;;9.11;84.67
36254;BME280;22291;52.250;21.228;2023-04-15T04:18:15;99525.44;;;9.10;84.85
36254;BME280;22291;52.250;21.228;2023-04-15T04:20:41;99520.83;;;9.10;85.21
36254;BME280;22291;52.250;21.228;2023-04-15T04:23:07;99516.62;;;9.07;85.21
36254;BME280;22291;52.250;21.228;2023-04-15T04:25:34;99525.03;;;9.05;85.61
36254;BME280;22291;52.250;21.228;2023-04-15T04:28:00;99517.51;;;9.05;85.38
36254;BME280;22291;52.250;21.228;2023-04-15T04:30:26;99525.28;;;9.06;85.78
36254;BME280;22291;52.250;21.228;2023-04-15T04:32:52;99528.86;;;9.04;85.74
36254;BME280;22291;52.250;21.228;2023-04-15T04:35:19;99522.44;;;9.03;86.09
36254;BME280;22291;52.250;21.228;2023-04-15T04:37:45;99531.16;;;9.00;86.19
36254;BME280;22291;52.250;21.228;2023-04-15T04:40:12;99527.42;;;8.98;86.56
36254;BME280;22291;52.250;21.228;2023-04-15T04:42:39;99521.55;;;8.96;86.68
36254;BME280;22291;52.250;21.228;2023-04-15T04:45:07;99521.87;;;8.94;86.85
36254;BME280;22291;52.250;21.228;2023-04-15T04:47:33;99522.43;;;8.94;87.46
36254;BME280;22291;52.250;21.228;2023-04-15T04:50:01;99522.74;;;8.92;87.49
36254;BME280;22291;52.250;21.228;2023-04-15T04:52:28;99523.06;;;8.91;87.80
36254;BME280;22291;52.250;21.228;2023-04-15T04:54:55;99524.94;;;8.90;87.77
36254;BME280;22291;52.250;21.228;2023-04-15T04:57:22;99519.89;;;8.89;88.44
36254;BME280;22291;52.250;21.228;2023-04-15T04:59:48;99521.30;;;8.86;88.08
36254;BME280;22291;52.250;21.228;2023-04-15T05:02:14;99528.61;;;8.86;88.49
36254;BME280;22291;52.250;21.228;2023-04-15T05:04:40;99525.66;;;8.85;88.50
36254;BME280;22291;52.250;21.228;2023-04-15T05:07:06;99520.83;;;8.84;88.70
36254;BME280;22291;52.250;21.228;2023-04-15T05:09:33;99519.80;;;8.83;89.17
36254;BME280;22291;52.250;21.228;2023-04-15T05:12:03;99525.44;;;8.84;88.95
36254;BME280;22291;52.250;21.228;2023-04-15T05:14:30;99523.21;;;8.86;89.73
36254;BME280;22291;52.250;21.228;2023-04-15T05:16:58;99523.52;;;8.84;89.20
36254;BME280;22291;52.250;21.228;2023-04-15T05:19:24;99528.13;;;8.84;89.23
36254;BME280;22291;52.250;21.228;2023-04-15T05:21:50;99528.13;;;8.84;89.47
36254;BME280;22291;52.250;21.228;2023-04-15T05:24:16;99525.50;;;8.81;90.01
36254;BME280;22291;52.250;21.228;2023-04-15T05:26:43;99527.57;;;8.84;89.95
36254;BME280;22291;52.250;21.228;2023-04-15T05:29:09;99526.45;;;8.85;89.92
36254;BME280;22291;52.250;21.228;2023-04-15T05:31:36;99527.79;;;8.85;90.13
36254;BME280;22291;52.250;21.228;2023-04-15T05:34:02;99523.69;;;8.88;90.51
36254;BME280;22291;52.250;21.228;2023-04-15T05:36:29;99525.81;;;8.88;90.56
36254;BME280;22291;52.250;21.228;2023-04-15T05:38:57;99527.48;;;8.87;90.40
36254;BME280;22291;52.250;21.228;2023-04-15T05:41:23;99527.16;;;8.88;90.54
36254;BME280;22291;52.250;21.228;2023-04-15T05:43:50;99529.80;;;8.91;90.64
36254;BME280;22291;52.250;21.228;2023-04-15T05:46:16;99534.88;;;8.92;90.57
36254;BME280;22291;52.250;21.228;2023-04-15T05:48:42;99529.23;;;8.91;90.70
36254;BME280;22291;52.250;21.228;2023-04-15T05:51:08;99532.72;;;8.92;90.86
36254;BME280;22291;52.250;21.228;2023-04-15T05:53:35;99539.23;;;8.91;90.67
36254;BME280;22291;52.250;21.228;2023-04-15T05:56:03;99534.88;;;8.92;90.65
36254;BME280;22291;52.250;21.228;2023-04-15T05:58:30;99535.19;;;8.91;90.97
36254;BME280;22291;52.250;21.228;2023-04-15T06:00:56;99539.23;;;8.91;92.38
36254;BME280;22291;52.250;21.228;2023-04-15T06:03:23;99538.83;;;8.86;91.38
36254;BME280;22291;52.250;21.228;2023-04-15T06:05:49;99537.48;;;8.86;90.98
36254;BME280;22291;52.250;21.228;2023-04-15T06:08:15;99536.45;;;8.85;91.30
36254;BME280;22291;52.250;21.228;2023-04-15T06:10:42;99542.88;;;8.86;91.70
36254;BME280;22291;52.250;21.228;2023-04-15T06:13:09;99535.41;;;8.83;91.42
36254;BME280;22291;52.250;21.228;2023-04-15T06:15:36;99550.72;;;8.85;91.53
36254;BME280;22291;52.250;21.228;2023-04-15T06:18:02;99548.02;;;8.85;91.67
36254;BME280;22291;52.250;21.228;2023-04-15T06:20:30;99548.02;;;8.85;91.78
36254;BME280;22291;52.250;21.228;2023-04-15T06:22:56;99552.31;;;8.86;91.71
36254;BME280;22291;52.250;21.228;2023-04-15T06:25:23;99551.28;;;8.85;92.09
36254;BME280;22291;52.250;21.228;2023-04-15T06:27:49;99555.32;;;8.85;91.71
36254;BME280;22291;52.250;21.228;2023-04-15T06:30:15;99565.81;;;8.95;91.77
36254;BME280;22291;52.250;21.228;2023-04-15T06:32:42;99565.81;;;8.95;91.77
36254;BME280;22291;52.250;21.228;2023-04-15T06:35:08;99553.41;;;8.85;91.99
36254;BME280;22291;52.250;21.228;2023-04-15T06:37:35;99553.98;;;8.85;92.05
36254;BME280;22291;52.250;21.228;2023-04-15T06:40:01;99555.63;;;8.83;92.03
36254;BME280;22291;52.250;21.228;2023-04-15T06:42:30;99560.80;;;8.82;92.24
36254;BME280;22291;52.250;21.228;2023-04-15T06:44:56;99555.16;;;8.81;92.11
36254;BME280;22291;52.250;21.228;2023-04-15T06:47:22;99558.64;;;8.82;92.24
36254;BME280;22291;52.250;21.228;2023-04-15T06:49:49;99551.91;;;8.82;93.09
36254;BME280;22291;52.250;21.228;2023-04-15T06:52:15;99565.95;;;8.81;92.74
36254;BME280;22291;52.250;21.228;2023-04-15T06:54:42;99563.88;;;8.78;92.77
36254;BME280;22291;52.250;21.228;2023-04-15T06:57:08;99566.34;;;8.77;92.66
36254;BME280;22291;52.250;21.228;2023-04-15T06:59:35;99567.13;;;8.77;92.79
36254;BME280;22291;52.250;21.228;2023-04-15T07:02:02;99562.53;;;8.78;92.76
36254;BME280;22291;52.250;21.228;2023-04-15T07:04:28;99572.78;;;8.78;92.95
36254;BME280;22291;52.250;21.228;2023-04-15T07:06:54;99567.38;;;8.78;92.96
36254;BME280;22291;52.250;21.228;2023-04-15T07:09:23;99571.44;;;8.78;93.47
36254;BME280;22291;52.250;21.228;2023-04-15T07:11:50;99576.48;;;8.80;93.21
36254;BME280;22291;52.250;21.228;2023-04-15T07:14:17;99578.64;;;8.81;93.30
36254;BME280;22291;52.250;21.228;2023-04-15T07:16:43;99579.13;;;8.83;93.43
36254;BME280;22291;52.250;21.228;2023-04-15T07:19:09;99579.28;;;8.86;93.79
36254;BME280;22291;52.250;21.228;2023-04-15T07:21:37;99580.06;;;8.87;93.99
36254;BME280;22291;52.250;21.228;2023-04-15T07:24:04;99578.97;;;8.88;93.76
36254;BME280;22291;52.250;21.228;2023-04-15T07:26:31;99577.00;;;8.91;93.98
36254;BME280;22291;52.250;21.228;2023-04-15T07:28:57;99581.83;;;8.91;93.73
36254;BME280;22291;52.250;21.228;2023-04-15T07:31:24;99580.08;;;8.95;94.03
36254;BME280;22291;52.250;21.228;2023-04-15T07:33:50;99577.38;;;8.95;94.00
36254;BME280;22291;52.250;21.228;2023-04-15T07:36:16;99578.41;;;8.97;94.19
36254;BME280;22291;52.250;21.228;2023-04-15T07:38:43;99580.02;;;8.98;94.32
36254;BME280;22291;52.250;21.228;2023-04-15T07:41:09;99581.93;;;8.97;94.06
36254;BME280;22291;52.250;21.228;2023-04-15T07:43:36;99581.27;;;9.01;94.27
36254;BME280;22291;52.250;21.228;2023-04-15T07:46:04;99574.94;;;9.05;94.24
36254;BME280;22291;52.250;21.228;2023-04-15T07:48:30;99576.29;;;9.05;94.64
36254;BME280;22291;52.250;21.228;2023-04-15T07:50:57;99575.19;;;9.06;94.29
36254;BME280;22291;52.250;21.228;2023-04-15T07:53:25;99572.24;;;9.05;94.17
36254;BME280;22291;52.250;21.228;2023-04-15T07:55:52;99577.33;;;9.07;94.32
36254;BME280;22291;52.250;21.228;2023-04-15T07:58:19;99561.14;;;9.07;94.40
36254;BME280;22291;52.250;21.228;2023-04-15T08:00:45;99574.63;;;9.07;94.06
36254;BME280;22291;52.250;21.228;2023-04-15T08:03:11;99576.45;;;9.09;94.19
36254;BME280;22291;52.250;21.228;2023-04-15T08:05:38;99577.48;;;9.10;94.04
36254;BME280;22291;52.250;21.228;2023-04-15T08:08:04;99578.52;;;9.12;94.45
36254;BME280;22291;52.250;21.228;2023-04-15T08:10:30;99580.03;;;9.15;94.38
36254;BME280;22291;52.250;21.228;2023-04-15T08:12:57;99582.88;;;9.19;94.49
36254;BME280;22291;52.250;21.228;2023-04-15T08:15:24;99579.80;;;9.23;94.95
36254;BME280;22291;52.250;21.228;2023-04-15T08:17:52;99580.53;;;9.26;94.62
36254;BME280;22291;52.250;21.228;2023-04-15T08:20:19;99581.22;;;9.29;94.62
36254;BME280;22291;52.250;21.228;2023-04-15T08:22:45;99577.73;;;9.29;94.38
36254;BME280;22291;52.250;21.228;2023-04-15T08:25:13;99574.16;;;9.31;94.36
36254;BME280;22291;52.250;21.228;2023-04-15T08:27:40;99578.14;;;9.33;94.38
36254;BME280;22291;52.250;21.228;2023-04-15T08:30:09;99568.45;;;9.32;94.19
36254;BME280;22291;52.250;21.228;2023-04-15T08:32:36;99580.52;;;9.35;94.21
36254;BME280;22291;52.250;21.228;2023-04-15T08:35:04;99584.16;;;9.39;94.50
36254;BME280;22291;52.250;21.228;2023-04-15T08:37:32;99591.31;;;9.44;94.50
36254;BME280;22291;52.250;21.228;2023-04-15T08:39:58;99585.92;;;9.44;94.23
36254;BME280;22291;52.250;21.228;2023-04-15T08:42:30;99585.29;;;9.47;94.33
36254;BME280;22291;52.250;21.228;2023-04-15T08:45:00;99585.12;;;9.52;94.38
36254;BME280;22291;52.250;21.228;2023-04-15T08:47:30;99590.20;;;9.53;94.50
36254;BME280;22291;52.250;21.228;2023-04-15T08:49:57;99588.77;;;9.56;94.48
36254;BME280;22291;52.250;21.228;2023-04-15T08:52:29;99586.22;;;9.60;94.60
36254;BME280;22291;52.250;21.228;2023-04-15T08:54:57;99586.15;;;9.62;94.30
36254;BME280;22291;52.250;21.228;2023-04-15T08:57:27;99595.19;;;9.66;94.63
36254;BME280;22291;52.250;21.228;2023-04-15T08:59:55;99592.25;;;9.74;94.95
36254;BME280;22291;52.250;21.228;2023-04-15T09:02:23;99588.81;;;9.80;94.95
36254;BME280;22291;52.250;21.228;2023-04-15T09:04:50;99589.06;;;9.81;94.22
36254;BME280;22291;52.250;21.228;2023-04-15T09:07:18;99594.69;;;9.82;94.18
36254;BME280;22291;52.250;21.228;2023-04-15T09:09:45;99590.31;;;9.83;94.18
36254;BME280;22291;52.250;21.228;2023-04-15T09:12:12;99595.97;;;9.84;94.07
36254;BME280;22291;52.250;21.228;2023-04-15T09:14:39;99593.58;;;9.83;93.96
36254;BME280;22291;52.250;21.228;2023-04-15T09:17:09;99590.88;;;9.83;93.73
36254;BME280;22291;52.250;21.228;2023-04-15T09:19:36;99596.60;;;9.81;93.89
36254;BME280;22291;52.250;21.228;2023-04-15T09:22:03;99592.62;;;9.79;93.54
36254;BME280;22291;52.250;21.228;2023-04-15T09:24:38;99595.00;;;9.80;93.71
36254;BME280;22291;52.250;21.228;2023-04-15T09:27:06;99593.28;;;9.76;93.67
36254;BME280;22291;52.250;21.228;2023-04-15T09:29:33;99591.44;;;9.73;93.74
36254;BME280;22291;52.250;21.228;2023-04-15T09:32:13;99599.69;;;9.77;94.11
36254;BME280;22291;52.250;21.228;2023-04-15T09:34:40;99590.06;;;9.82;94.78
36254;BME280;22291;52.250;21.228;2023-04-15T09:37:06;99599.03;;;9.89;94.95
36254;BME280;22291;52.250;21.228;2023-04-15T09:39:45;99601.56;;;9.94;94.74
36254;BME280;22291;52.250;21.228;2023-04-15T09:42:15;99598.47;;;9.98;94.83
36254;BME280;22291;52.250;21.228;2023-04-15T09:44:43;99601.64;;;10.00;94.28
36254;BME280;22291;52.250;21.228;2023-04-15T09:47:28;99595.81;;;10.04;94.28
36254;BME280;22291;52.250;21.228;2023-04-15T09:49:57;99602.03;;;10.05;94.11
36254;BME280;22291;52.250;21.228;2023-04-15T09:52:26;99607.59;;;10.08;94.66
36254;BME280;22291;52.250;21.228;2023-04-15T09:54:56;99606.13;;;10.11;94.31
36254;BME280;22291;52.250;21.228;2023-04-15T09:57:23;99609.66;;;10.12;94.07
36254;BME280;22291;52.250;21.228;2023-04-15T09:59:50;99613.28;;;10.16;94.46
36254;BME280;22291;52.250;21.228;2023-04-15T10:02:18;99608.66;;;10.16;94.45
36254;BME280;22291;52.250;21.228;2023-04-15T10:04:47;99615.73;;;10.15;93.65
36254;BME280;22291;52.250;21.228;2023-04-15T10:07:16;99609.55;;;10.14;93.91
36254;BME280;22291;52.250;21.228;2023-04-15T10:09:46;99619.64;;;10.11;93.53
36254;BME280;22291;52.250;21.228;2023-04-15T10:12:18;99609.50;;;10.08;93.62
36254;BME280;22291;52.250;21.228;2023-04-15T10:14:47;99612.42;;;10.09;93.77
36254;BME280;22291;52.250;21.228;2023-04-15T10:17:19;99613.31;;;10.07;93.45
36254;BME280;22291;52.250;21.228;2023-04-15T10:19:48;99609.11;;;10.03;93.60
36254;BME280;22291;52.250;21.228;2023-04-15T10:22:19;99611.17;;;10.06;94.11
36254;BME280;22291;52.250;21.228;2023-04-15T10:24:46;99610.86;;;10.08;94.32
36254;BME280;22291;52.250;21.228;2023-04-15T10:27:16;99610.75;;;10.10;94.29
36254;BME280;22291;52.250;21.228;2023-04-15T10:29:44;99608.45;;;10.15;94.90
36254;BME280;22291;52.250;21.228;2023-04-15T10:32:14;99615.42;;;10.16;94.52
36254;BME280;22291;52.250;21.228;2023-04-15T10:34:48;99615.95;;;10.24;95.27
36254;BME280;22291;52.250;21.228;2023-04-15T10:37:38;99614.06;;;10.25;94.80
36254;BME280;22291;52.250;21.228;2023-04-15T10:40:25;99614.53;;;10.27;94.92
36254;BME280;22291;52.250;21.228;2023-04-15T10:43:02;99611.83;;;10.36;94.85
36254;BME280;22291;52.250;21.228;2023-04-15T10:45:34;99614.03;;;10.42;95.08
36254;BME280;22291;52.250;21.228;2023-04-15T10:48:03;99611.22;;;10.45;95.11
36254;BME280;22291;52.250;21.228;2023-04-15T10:50:32;99608.98;;;10.47;94.75
36254;BME280;22291;52.250;21.228;2023-04-15T10:53:03;99607.63;;;10.47;94.56
36254;BME280;22291;52.250;21.228;2023-04-15T10:55:33;99611.36;;;10.49;94.46
36254;BME280;22291;52.250;21.228;2023-04-15T10:58:01;99615.23;;;10.54;94.63
36254;BME280;22291;52.250;21.228;2023-04-15T11:00:30;99612.20;;;10.55;94.65
36254;BME280;22291;52.250;21.228;2023-04-15T11:03:06;99612.31;;;10.53;94.15
36254;BME280;22291;52.250;21.228;2023-04-15T11:05:51;99613.23;;;10.57;94.18
36254;BME280;22291;52.250;21.228;2023-04-15T11:08:19;99610.31;;;10.56;93.84
36254;BME280;22291;52.250;21.228;2023-04-15T11:10:50;99614.38;;;10.56;93.83
36254;BME280;22291;52.250;21.228;2023-04-15T11:13:20;99618.11;;;10.57;94.04
36254;BME280;22291;52.250;21.228;2023-04-15T11:15:49;99609.81;;;10.62;94.50
36254;BME280;22291;52.250;21.228;2023-04-15T11:18:20;99616.79;;;10.63;93.80
36254;BME280;22291;52.250;21.228;2023-04-15T11:20:56;99615.76;;;10.62;93.53
36254;BME280;22291;52.250;21.228;2023-04-15T11:23:39;99613.95;;;10.60;93.46
36254;BME280;22291;52.250;21.228;2023-04-15T11:26:09;99613.63;;;10.61;93.60
36254;BME280;22291;52.250;21.228;2023-04-15T11:28:42;99610.45;;;10.59;93.36
36254;BME280;22291;52.250;21.228;2023-04-15T11:31:19;99617.44;;;10.60;93.22
36254;BME280;22291;52.250;21.228;2023-04-15T11:33:54;99614.52;;;10.59;93.47
36254;BME280;22291;52.250;21.228;2023-04-15T11:36:25;99617.16;;;10.53;92.81
36254;BME280;22291;52.250;21.228;2023-04-15T11:38:52;99619.64;;;10.52;93.18
36254;BME280;22291;52.250;21.228;2023-04-15T11:41:22;99629.32;;;10.53;93.20
36254;BME280;22291;52.250;21.228;2023-04-15T11:43:50;99611.85;;;10.51;93.23
36254;BME280;22291;52.250;21.228;2023-04-15T11:46:17;99618.22;;;10.46;92.90
36254;BME280;22291;52.250;21.228;2023-04-15T11:48:45;99623.67;;;10.37;92.51
36254;BME280;22291;52.250;21.228;2023-04-15T11:51:13;99629.72;;;10.34;92.85
36254;BME280;22291;52.250;21.228;2023-04-15T11:53:48;99632.00;;;10.29;92.55
36254;BME280;22291;52.250;21.228;2023-04-15T11:56:20;99629.08;;;10.28;93.13
36254;BME280;22291;52.250;21.228;2023-04-15T11:58:54;99638.93;;;10.24;93.15
36254;BME280;22291;52.250;21.228;2023-04-15T12:01:34;99634.16;;;10.21;93.59
36254;BME280;22291;52.250;21.228;2023-04-15T12:04:10;99640.06;;;10.15;93.26
36254;BME280;22291;52.250;21.228;2023-04-15T12:06:37;99636.89;;;10.13;93.43
36254;BME280;22291;52.250;21.228;2023-04-15T12:09:09;99649.87;;;10.13;93.82
36254;BME280;22291;52.250;21.228;2023-04-15T12:14:30;99648.52;;;10.13;94.65
36254;BME280;22291;52.250;21.228;2023-04-15T12:17:05;99658.19;;;10.14;94.52
36254;BME280;22291;52.250;21.228;2023-04-15T12:19:41;99666.86;;;10.14;94.64
36254;BME280;22291;52.250;21.228;2023-04-15T12:22:12;99670.20;;;10.10;94.47
36254;BME280;22291;52.250;21.228;2023-04-15T12:24:43;99676.81;;;10.07;94.48
36254;BME280;22291;52.250;21.228;2023-04-15T12:27:13;99673.95;;;10.03;94.52
36254;BME280;22291;52.250;21.228;2023-04-15T12:29:41;99679.58;;;10.04;95.09
36254;BME280;22291;52.250;21.228;2023-04-15T12:32:11;99680.93;;;10.04;94.81
36254;BME280;22291;52.250;21.228;2023-04-15T12:34:50;99692.40;;;10.01;94.89
36254;BME280;22291;52.250;21.228;2023-04-15T12:37:19;99687.78;;;10.02;94.95
36254;BME280;22291;52.250;21.228;2023-04-15T12:39:48;99688.88;;;10.01;94.91
36254;BME280;22291;52.250;21.228;2023-04-15T12:42:16;99689.61;;;9.95;94.38
36254;BME280;22291;52.250;21.228;2023-04-15T12:44:43;99686.83;;;9.89;94.36
36254;BME280;22291;52.250;21.228;2023-04-15T12:47:11;99689.69;;;9.84;94.18
36254;BME280;22291;52.250;21.228;2023-04-15T12:49:38;99693.36;;;9.88;94.75
36254;BME280;22291;52.250;21.228;2023-04-15T12:52:06;99692.73;;;9.91;95.35
36254;BME280;22291;52.250;21.228;2023-04-15T12:54:32;99701.14;;;9.98;95.09
36254;BME280;22291;52.250;21.228;2023-04-15T12:56:59;99693.35;;;9.97;94.39
36254;BME280;22291;52.250;21.228;2023-04-15T12:59:27;99700.17;;;9.94;93.70
36254;BME280;22291;52.250;21.228;2023-04-15T13:01:54;99700.48;;;9.93;93.55
36254;BME280;22291;52.250;21.228;2023-04-15T13:04:21;99704.79;;;9.94;93.54